Time;durP1;ratioP1;P1;durP2;ratioP2;P2;SDS_P1;SDS_P2;PMS_P1;PMS_P2;Temp;Humidity;BMP_temperature;BMP_pressure;BME280_temperature;BME280_humidity;BME280_pressure;Samples;Min_cycle;Max_cycle;Signal;HPM_P1;HPM_P2
2022/09/10 00:01:07;;;;;;;1.35;1.25;;;;;;;;;;610986;235;26857;-67
2022/09/10 00:03:35;;;;;;;1.40;1.30;;;;;;;;;;603280;234;26589;-66
2022/09/10 00:06:06;;;;;;;1.52;1.40;;;;;;;;;;602128;236;26693;-66
2022/09/10 00:08:33;;;;;;;2.72;1.30;;;;;;;;;;604332;236;26620;-66
2022/09/10 00:11:03;;;;;;;3.90;1.10;;;;;;;;;;605662;235;26839;-67
2022/09/10 00:13:32;;;;;;;1.58;1.40;;;;;;;;;;601943;236;26673;-66
2022/09/10 00:16:01;;;;;;;1.98;1.12;;;;;;;;;;601370;236;26672;-66
2022/09/10 00:18:29;;;;;;;1.17;1.05;;;;;;;;;;601989;236;26921;-66
2022/09/10 00:20:58;;;;;;;1.55;1.12;;;;;;;;;;610699;235;26581;-66
2022/09/10 00:23:27;;;;;;;1.52;1.40;;;;;;;;;;601874;236;26865;-66
2022/09/10 00:25:56;;;;;;;1.62;1.12;;;;;;;;;;607405;236;26637;-66
2022/09/10 00:28:25;;;;;;;1.37;1.27;;;;;;;;;;607874;236;26571;-66
2022/09/10 00:30:54;;;;;;;1.58;1.40;;;;;;;;;;602280;236;26616;-66
2022/09/10 00:33:23;;;;;;;3.03;1.30;;;;;;;;;;602714;236;26611;-65
2022/09/10 00:35:51;;;;;;;1.40;1.30;;;;;;;;;;605805;236;26625;-66
2022/09/10 00:38:20;;;;;;;1.42;1.12;;;;;;;;;;609895;236;27186;-65
2022/09/10 00:40:49;;;;;;;1.70;1.23;;;;;;;;;;603575;235;26642;-65
2022/09/10 00:43:19;;;;;;;1.67;1.50;;;;;;;;;;602491;236;27400;-65
2022/09/10 00:45:47;;;;;;;1.20;1.10;;;;;;;;;;609814;236;26606;-65
2022/09/10 00:48:16;;;;;;;1.30;1.20;;;;;;;;;;607456;236;26629;-63
2022/09/10 00:50:45;;;;;;;1.80;1.27;;;;;;;;;;603038;234;26592;-63
2022/09/10 00:53:14;;;;;;;1.52;1.42;;;;;;;;;;607195;235;26607;-64
2022/09/10 00:55:42;;;;;;;1.67;1.30;;;;;;;;;;606814;235;26809;-64
2022/09/10 00:58:11;;;;;;;2.47;1.27;;;;;;;;;;601800;235;26684;-64
2022/09/10 01:00:40;;;;;;;1.60;1.50;;;;;;;;;;604474;234;26951;-63
2022/09/10 01:03:10;;;;;;;1.60;1.50;;;;;;;;;;602887;235;26602;-62
2022/09/10 01:05:38;;;;;;;1.30;1.20;;;;;;;;;;610671;235;26663;-63
2022/09/10 01:08:06;;;;;;;1.75;1.30;;;;;;;;;;610259;235;26588;-63
2022/09/10 01:10:36;;;;;;;1.77;1.52;;;;;;;;;;610104;236;26606;-63
2022/09/10 01:13:04;;;;;;;1.48;1.30;;;;;;;;;;609554;235;26660;-64
2022/09/10 01:15:34;;;;;;;2.92;1.48;;;;;;;;;;601127;239;26585;-63
2022/09/10 01:18:20;;;;;;;1.85;1.40;;;;;;;;;;601491;236;26598;-64
2022/09/10 01:20:50;;;;;;;1.85;1.40;;;;;;;;;;603068;236;26597;-63
2022/09/10 01:23:21;;;;;;;2.75;1.40;;;;;;;;;;605201;236;26653;-63
2022/09/10 01:25:56;;;;;;;6.05;1.80;;;;;;;;;;608704;235;26833;-63
2022/09/10 01:28:26;;;;;;;1.83;1.58;;;;;;;;;;608314;236;26672;-63
2022/09/10 01:30:55;;;;;;;8.10;1.65;;;;;;;;;;604517;236;27075;-61
2022/09/10 01:33:25;;;;;;;9.77;2.20;;;;;;;;;;609924;236;26579;-61
2022/09/10 01:35:56;;;;;;;8.70;2.08;;;;;;;;;;605677;235;26562;-60
2022/09/10 01:38:25;;;;;;;7.00;2.30;;;;;;;;;;607344;236;26555;-61
2022/09/10 01:40:54;;;;;;;5.10;2.42;;;;;;;;;;604948;236;26604;-60
2022/09/10 01:43:23;;;;;;;3.03;1.87;;;;;;;;;;602094;236;26599;-60
2022/09/10 01:46:06;;;;;;;6.00;1.70;;;;;;;;;;610240;236;27031;-61
2022/09/10 01:48:41;;;;;;;4.75;1.60;;;;;;;;;;601064;235;26581;-60
2022/09/10 01:51:13;;;;;;;1.30;1.20;;;;;;;;;;609670;235;26554;-60
2022/09/10 01:53:58;;;;;;;1.83;1.40;;;;;;;;;;609722;236;26618;-61
2022/09/10 01:56:34;;;;;;;2.83;1.30;;;;;;;;;;606867;236;26605;-60
2022/09/10 01:59:02;;;;;;;1.30;1.20;;;;;;;;;;608753;236;26659;-60
2022/09/10 02:01:32;;;;;;;2.17;1.40;;;;;;;;;;602946;235;26910;-61
2022/09/10 02:04:01;;;;;;;1.85;1.40;;;;;;;;;;602466;235;26569;-61
2022/09/10 02:06:29;;;;;;;1.50;1.40;;;;;;;;;;610898;235;26592;-60
2022/09/10 02:08:58;;;;;;;1.60;1.30;;;;;;;;;;608047;235;26651;-61
2022/09/10 02:11:27;;;;;;;4.00;1.48;;;;;;;;;;603217;235;27267;-62
2022/09/10 02:13:57;;;;;;;1.77;1.33;;;;;;;;;;605917;235;26589;-61
2022/09/10 02:16:29;;;;;;;2.22;1.48;;;;;;;;;;601903;239;26578;-61
2022/09/10 02:18:57;;;;;;;1.67;1.50;;;;;;;;;;609762;232;26642;-61
2022/09/10 02:21:26;;;;;;;1.42;1.33;;;;;;;;;;610198;235;27021;-61
2022/09/10 02:23:55;;;;;;;1.70;1.60;;;;;;;;;;602340;235;26641;-60
2022/09/10 02:26:24;;;;;;;1.67;1.50;;;;;;;;;;601531;239;27023;-61
2022/09/10 02:28:53;;;;;;;1.40;1.30;;;;;;;;;;602222;236;26595;-60
2022/09/10 02:31:22;;;;;;;2.15;1.80;;;;;;;;;;603988;236;26632;-61
2022/09/10 02:33:50;;;;;;;1.77;1.60;;;;;;;;;;608709;235;26606;-61
2022/09/10 02:36:19;;;;;;;1.67;1.58;;;;;;;;;;610607;235;26652;-60
2022/09/10 02:38:48;;;;;;;1.83;1.73;;;;;;;;;;608397;236;26993;-61
2022/09/10 02:41:17;;;;;;;2.40;1.85;;;;;;;;;;609996;236;26600;-61
2022/09/10 02:43:46;;;;;;;1.77;1.67;;;;;;;;;;608156;235;26655;-61
2022/09/10 02:46:14;;;;;;;2.65;1.80;;;;;;;;;;602119;236;26635;-61
2022/09/10 02:48:44;;;;;;;1.95;1.70;;;;;;;;;;611062;235;26663;-61
2022/09/10 02:51:13;;;;;;;2.12;1.70;;;;;;;;;;612331;235;26616;-61
2022/09/10 02:53:42;;;;;;;3.15;2.00;;;;;;;;;;612206;235;26660;-61
2022/09/10 02:56:11;;;;;;;1.70;1.60;;;;;;;;;;606869;235;26637;-61
2022/09/10 02:58:39;;;;;;;2.55;1.67;;;;;;;;;;601277;236;26657;-61
2022/09/10 03:01:09;;;;;;;2.20;1.90;;;;;;;;;;601798;236;26648;-61
2022/09/10 03:03:38;;;;;;;3.92;1.95;;;;;;;;;;601910;236;26632;-61
2022/09/10 03:06:07;;;;;;;3.53;1.60;;;;;;;;;;609166;236;26585;-61
2022/09/10 03:08:36;;;;;;;1.90;1.70;;;;;;;;;;609830;235;26609;-61
2022/09/10 03:11:05;;;;;;;2.20;1.85;;;;;;;;;;607046;235;26891;-61
2022/09/10 03:13:33;;;;;;;3.78;2.05;;;;;;;;;;612002;234;26654;-61
2022/09/10 03:16:02;;;;;;;2.30;2.08;;;;;;;;;;613402;234;26814;-60
2022/09/10 03:18:31;;;;;;;2.05;1.85;;;;;;;;;;611877;234;26576;-60
2022/09/10 03:21:06;;;;;;;2.35;1.95;;;;;;;;;;615024;234;26889;-60
2022/09/10 03:23:35;;;;;;;2.03;1.92;;;;;;;;;;613061;234;26599;-61
2022/09/10 03:26:04;;;;;;;2.65;1.73;;;;;;;;;;610320;235;26824;-61
2022/09/10 03:28:32;;;;;;;2.28;2.00;;;;;;;;;;609132;235;26618;-61
2022/09/10 03:31:01;;;;;;;2.30;1.92;;;;;;;;;;602334;236;26652;-61
2022/09/10 03:33:30;;;;;;;1.92;1.83;;;;;;;;;;609887;235;26645;-60
2022/09/10 03:35:59;;;;;;;1.83;1.73;;;;;;;;;;607818;236;26633;-61
2022/09/10 03:38:28;;;;;;;1.73;1.62;;;;;;;;;;601667;236;26570;-61
2022/09/10 03:40:57;;;;;;;1.83;1.73;;;;;;;;;;610107;236;26609;-61
2022/09/10 03:43:25;;;;;;;1.85;1.75;;;;;;;;;;606740;233;26823;-61
2022/09/10 03:45:54;;;;;;;1.92;1.75;;;;;;;;;;610164;236;26624;-61
2022/09/10 03:48:23;;;;;;;2.08;1.90;;;;;;;;;;610006;236;27009;-62
2022/09/10 03:50:53;;;;;;;2.10;1.95;;;;;;;;;;606111;236;26636;-61
2022/09/10 03:53:21;;;;;;;5.15;2.10;;;;;;;;;;605553;235;26623;-60
2022/09/10 03:55:50;;;;;;;5.00;1.80;;;;;;;;;;612353;230;26669;-61
2022/09/10 03:58:19;;;;;;;4.45;2.17;;;;;;;;;;608168;235;26647;-60
2022/09/10 04:00:47;;;;;;;2.40;1.70;;;;;;;;;;601641;235;26828;-61
2022/09/10 04:03:16;;;;;;;1.70;1.60;;;;;;;;;;609571;235;26654;-60
2022/09/10 04:05:45;;;;;;;1.70;1.60;;;;;;;;;;610211;235;26900;-61
2022/09/10 04:08:14;;;;;;;2.05;1.60;;;;;;;;;;608226;235;26622;-61
2022/09/10 04:10:44;;;;;;;1.50;1.40;;;;;;;;;;604440;236;26643;-61
2022/09/10 04:13:13;;;;;;;2.10;1.48;;;;;;;;;;594509;239;26642;-60
2022/09/10 04:15:41;;;;;;;1.55;1.45;;;;;;;;;;599941;240;26638;-60
2022/09/10 04:18:10;;;;;;;2.90;1.80;;;;;;;;;;609155;236;26587;-60
2022/09/10 04:20:39;;;;;;;2.15;1.95;;;;;;;;;;605204;235;26676;-61
2022/09/10 04:23:08;;;;;;;1.85;1.60;;;;;;;;;;610860;233;27300;-61
2022/09/10 04:25:37;;;;;;;2.00;1.60;;;;;;;;;;605223;235;26651;-60
2022/09/10 04:28:06;;;;;;;1.75;1.60;;;;;;;;;;602891;235;26947;-60
2022/09/10 04:30:34;;;;;;;2.25;1.48;;;;;;;;;;604688;231;26633;-61
2022/09/10 04:33:03;;;;;;;2.15;1.65;;;;;;;;;;604368;235;26598;-60
2022/09/10 04:35:32;;;;;;;1.73;1.62;;;;;;;;;;613010;230;26635;-61
2022/09/10 04:38:01;;;;;;;1.80;1.70;;;;;;;;;;612046;235;26643;-61
2022/09/10 04:40:30;;;;;;;2.00;1.60;;;;;;;;;;610691;235;26835;-60
2022/09/10 04:42:59;;;;;;;1.62;1.35;;;;;;;;;;603472;236;26613;-61
2022/09/10 04:45:28;;;;;;;1.50;1.40;;;;;;;;;;599118;239;26684;-61
2022/09/10 04:47:56;;;;;;;1.55;1.45;;;;;;;;;;594291;239;26587;-60
2022/09/10 04:50:25;;;;;;;1.58;1.48;;;;;;;;;;610083;235;26625;-61
2022/09/10 04:52:54;;;;;;;1.62;1.30;;;;;;;;;;610233;235;27184;-60
2022/09/10 04:55:24;;;;;;;1.48;1.37;;;;;;;;;;610113;235;26662;-61
2022/09/10 04:57:53;;;;;;;1.52;1.42;;;;;;;;;;609477;236;26851;-60
2022/09/10 05:00:21;;;;;;;1.70;1.60;;;;;;;;;;610055;236;26636;-61
2022/09/10 05:02:50;;;;;;;2.97;1.52;;;;;;;;;;611785;235;26665;-61
2022/09/10 05:05:18;;;;;;;1.48;1.37;;;;;;;;;;606337;235;26830;-61
2022/09/10 05:07:47;;;;;;;2.15;1.50;;;;;;;;;;608855;236;26632;-61
2022/09/10 05:10:17;;;;;;;1.62;1.52;;;;;;;;;;603463;235;26855;-61
2022/09/10 05:12:46;;;;;;;2.58;1.23;;;;;;;;;;612283;235;26608;-61
2022/09/10 05:15:14;;;;;;;1.50;1.40;;;;;;;;;;609992;236;26667;-61
2022/09/10 05:17:43;;;;;;;1.60;1.20;;;;;;;;;;608236;236;26645;-61
2022/09/10 05:20:11;;;;;;;1.55;1.40;;;;;;;;;;606716;236;26637;-60
2022/09/10 05:22:41;;;;;;;1.50;1.40;;;;;;;;;;610120;236;26938;-60
2022/09/10 05:25:09;;;;;;;1.30;1.20;;;;;;;;;;610119;236;26626;-60
2022/09/10 05:27:38;;;;;;;1.80;1.70;;;;;;;;;;611540;235;26877;-61
2022/09/10 05:30:07;;;;;;;2.00;1.33;;;;;;;;;;608452;235;26636;-60
2022/09/10 05:32:38;;;;;;;1.95;1.45;;;;;;;;;;609852;232;26609;-61
2022/09/10 05:35:07;;;;;;;1.40;1.30;;;;;;;;;;606501;234;26841;-60
2022/09/10 05:37:35;;;;;;;2.30;1.40;;;;;;;;;;611034;235;26596;-60
2022/09/10 05:40:07;;;;;;;1.55;1.45;;;;;;;;;;602655;234;26833;-61
2022/09/10 05:42:34;;;;;;;1.20;1.20;;;;;;;;;;602041;239;26896;-61
2022/09/10 05:45:04;;;;;;;1.30;1.20;;;;;;;;;;607716;235;26649;-60
2022/09/10 05:47:33;;;;;;;3.05;1.30;;;;;;;;;;602163;235;26578;-60
2022/09/10 05:50:02;;;;;;;1.30;1.20;;;;;;;;;;603894;235;26845;-60
2022/09/10 05:52:31;;;;;;;1.58;1.48;;;;;;;;;;604581;235;26662;-60
2022/09/10 05:54:59;;;;;;;1.75;1.25;;;;;;;;;;608705;236;26829;-60
2022/09/10 05:57:30;;;;;;;1.05;1.02;;;;;;;;;;602613;236;26592;-61
2022/09/10 05:59:58;;;;;;;1.85;1.33;;;;;;;;;;602550;236;26569;-63
2022/09/10 06:02:26;;;;;;;3.65;1.40;;;;;;;;;;608225;235;26655;-62
2022/09/10 06:04:55;;;;;;;5.07;1.87;;;;;;;;;;609529;236;26598;-63
2022/09/10 06:07:24;;;;;;;6.05;1.70;;;;;;;;;;608926;235;26588;-63
2022/09/10 06:09:52;;;;;;;6.53;1.77;;;;;;;;;;609098;235;26643;-63
2022/09/10 06:12:21;;;;;;;2.15;1.60;;;;;;;;;;612456;234;26857;-64
2022/09/10 06:14:51;;;;;;;2.55;1.48;;;;;;;;;;601666;235;26642;-64
2022/09/10 06:17:19;;;;;;;2.55;1.30;;;;;;;;;;601320;239;26847;-64
2022/09/10 06:19:50;;;;;;;2.55;1.30;;;;;;;;;;601352;239;26654;-64
2022/09/10 06:22:17;;;;;;;2.17;1.37;;;;;;;;;;601199;239;26643;-64
2022/09/10 06:24:47;;;;;;;1.20;1.20;;;;;;;;;;601679;236;26686;-64
2022/09/10 06:27:15;;;;;;;1.42;1.30;;;;;;;;;;609638;236;26589;-64
2022/09/10 06:29:43;;;;;;;1.85;1.48;;;;;;;;;;598540;240;26877;-64
2022/09/10 06:32:12;;;;;;;1.55;1.23;;;;;;;;;;608154;235;26595;-64
2022/09/10 06:34:41;;;;;;;1.15;1.15;;;;;;;;;;604059;236;26848;-64
2022/09/10 06:37:10;;;;;;;2.87;1.20;;;;;;;;;;605048;236;26647;-63
2022/09/10 06:39:39;;;;;;;1.20;1.10;;;;;;;;;;610045;236;26643;-63
2022/09/10 06:42:07;;;;;;;1.20;1.10;;;;;;;;;;607643;235;26640;-64
2022/09/10 06:44:38;;;;;;;1.92;1.30;;;;;;;;;;603031;236;26666;-63
2022/09/10 06:47:05;;;;;;;1.30;1.20;;;;;;;;;;611463;233;26945;-63
2022/09/10 06:49:35;;;;;;;1.25;1.17;;;;;;;;;;592541;239;26614;-63
2022/09/10 06:52:03;;;;;;;1.37;1.12;;;;;;;;;;591413;243;27301;-63
2022/09/10 06:54:32;;;;;;;1.20;1.10;;;;;;;;;;591953;243;26637;-63
2022/09/10 06:57:03;;;;;;;1.62;1.10;;;;;;;;;;593387;239;26886;-63
2022/09/10 06:59:30;;;;;;;1.42;1.10;;;;;;;;;;599358;239;26600;-63
2022/09/10 07:01:59;;;;;;;0.88;0.88;;;;;;;;;;597176;239;26686;-63
2022/09/10 07:04:27;;;;;;;1.20;1.20;;;;;;;;;;598776;239;26878;-62
2022/09/10 07:06:57;;;;;;;1.17;1.08;;;;;;;;;;601398;239;26648;-64
2022/09/10 07:09:26;;;;;;;1.33;1.12;;;;;;;;;;599549;239;27392;-63
2022/09/10 07:11:56;;;;;;;1.85;1.23;;;;;;;;;;595424;239;26674;-63
2022/09/10 07:14:23;;;;;;;1.33;1.23;;;;;;;;;;594932;238;26662;-63
2022/09/10 07:16:53;;;;;;;1.85;1.23;;;;;;;;;;590709;243;26674;-64
2022/09/10 07:19:21;;;;;;;1.40;1.20;;;;;;;;;;594910;239;26693;-63
2022/09/10 07:21:50;;;;;;;1.52;1.23;;;;;;;;;;593992;239;27141;-63
2022/09/10 07:24:20;;;;;;;1.10;1.10;;;;;;;;;;598621;239;26670;-63
2022/09/10 07:26:48;;;;;;;1.25;1.15;;;;;;;;;;596148;239;26854;-63
2022/09/10 07:29:17;;;;;;;1.50;1.40;;;;;;;;;;596930;239;26706;-63
2022/09/10 07:31:47;;;;;;;1.50;1.20;;;;;;;;;;591867;239;26873;-62
2022/09/10 07:34:14;;;;;;;1.48;1.05;;;;;;;;;;597316;239;26611;-63
2022/09/10 07:36:43;;;;;;;1.30;1.20;;;;;;;;;;594510;239;26623;-63
2022/09/10 07:39:12;;;;;;;1.65;1.02;;;;;;;;;;591948;239;26622;-62
2022/09/10 07:41:41;;;;;;;1.30;1.20;;;;;;;;;;599220;239;26683;-63
2022/09/10 07:44:10;;;;;;;1.40;1.05;;;;;;;;;;595146;239;26862;-60
2022/09/10 07:46:38;;;;;;;3.05;1.20;;;;;;;;;;594181;239;26605;-60
2022/09/10 07:49:07;;;;;;;2.90;1.40;;;;;;;;;;595704;239;26846;-61
2022/09/10 07:51:37;;;;;;;2.10;1.30;;;;;;;;;;594834;239;26632;-60
2022/09/10 07:54:05;;;;;;;3.62;1.10;;;;;;;;;;596491;239;26698;-60
2022/09/10 07:56:34;;;;;;;92.78;15.63;;;;;;;;;;591339;239;26592;-60
2022/09/10 07:59:03;;;;;;;159.02;25.58;;;;;;;;;;593884;239;26700;-61
2022/09/10 08:01:33;;;;;;;130.00;25.58;;;;;;;;;;610436;235;26620;-60
2022/09/10 08:04:01;;;;;;;142.57;26.12;;;;;;;;;;605812;235;27362;-62
2022/09/10 08:06:31;;;;;;;71.10;14.90;;;;;;;;;;607247;235;26813;-61
2022/09/10 08:09:00;;;;;;;95.38;17.83;;;;;;;;;;607421;235;26613;-61
2022/09/10 08:11:31;;;;;;;77.07;13.38;;;;;;;;;;603786;235;26838;-61
2022/09/10 08:13:59;;;;;;;73.62;14.00;;;;;;;;;;608553;235;26620;-61
2022/09/10 08:16:27;;;;;;;51.90;12.00;;;;;;;;;;603062;235;26569;-62
2022/09/10 08:18:56;;;;;;;62.20;13.30;;;;;;;;;;604114;236;26911;-62
2022/09/10 08:21:25;;;;;;;46.65;10.52;;;;;;;;;;610270;235;26653;-62
2022/09/10 08:23:54;;;;;;;49.70;11.98;;;;;;;;;;607409;235;26670;-61
2022/09/10 08:26:23;;;;;;;37.15;8.88;;;;;;;;;;605882;235;26596;-61
2022/09/10 08:28:51;;;;;;;24.45;7.43;;;;;;;;;;604358;235;26615;-61
2022/09/10 08:31:20;;;;;;;29.23;7.60;;;;;;;;;;607625;235;26810;-62
2022/09/10 08:33:49;;;;;;;14.15;4.18;;;;;;;;;;607529;236;26584;-61
2022/09/10 08:36:18;;;;;;;10.27;3.35;;;;;;;;;;607875;235;26668;-61
2022/09/10 08:38:47;;;;;;;9.43;3.03;;;;;;;;;;607488;235;26585;-61
2022/09/10 08:41:34;;;;;;;5.80;1.83;;;;;;;;;;605262;236;26666;-61
2022/09/10 08:44:02;;;;;;;5.80;2.17;;;;;;;;;;605876;236;26664;-61
2022/09/10 08:46:31;;;;;;;5.28;1.92;;;;;;;;;;609798;235;26608;-61
2022/09/10 08:49:04;;;;;;;8.52;2.95;;;;;;;;;;609835;235;27291;-62
2022/09/10 08:51:33;;;;;;;9.93;2.70;;;;;;;;;;607948;234;26892;-60
2022/09/10 08:54:03;;;;;;;10.52;4.15;;;;;;;;;;604827;236;26648;-60
2022/09/10 08:56:31;;;;;;;14.00;3.55;;;;;;;;;;605970;236;26859;-61
2022/09/10 08:59:03;;;;;;;7.45;2.70;;;;;;;;;;606903;236;26672;-62
2022/09/10 09:01:34;;;;;;;6.32;2.90;;;;;;;;;;613597;233;26626;-61
2022/09/10 09:04:03;;;;;;;4.10;2.17;;;;;;;;;;612576;234;26639;-61
2022/09/10 09:06:33;;;;;;;9.38;3.10;;;;;;;;;;606067;235;26903;-61
2022/09/10 09:09:02;;;;;;;7.20;3.05;;;;;;;;;;609814;233;26838;-61
2022/09/10 09:11:30;;;;;;;5.10;2.85;;;;;;;;;;607909;234;26722;-61
2022/09/10 09:14:00;;;;;;;5.28;2.70;;;;;;;;;;611803;234;26645;-61
2022/09/10 09:16:33;;;;;;;4.70;2.37;;;;;;;;;;605052;234;26863;-61
2022/09/10 09:19:19;;;;;;;6.53;2.25;;;;;;;;;;609670;235;26629;-62
2022/09/10 09:21:51;;;;;;;4.50;1.85;;;;;;;;;;605875;236;26610;-62
2022/09/10 09:24:21;;;;;;;4.70;1.87;;;;;;;;;;604654;235;26601;-61
2022/09/10 09:26:49;;;;;;;4.82;2.50;;;;;;;;;;609489;235;26604;-62
2022/09/10 09:29:22;;;;;;;8.40;2.40;;;;;;;;;;603793;236;26597;-60
2022/09/10 09:31:51;;;;;;;5.05;2.00;;;;;;;;;;606903;236;26635;-62
2022/09/10 09:34:20;;;;;;;4.22;2.22;;;;;;;;;;607255;236;26851;-62
2022/09/10 09:36:48;;;;;;;4.78;1.90;;;;;;;;;;609447;235;26571;-61
2022/09/10 09:39:19;;;;;;;3.47;2.00;;;;;;;;;;605711;236;26829;-61
2022/09/10 09:41:48;;;;;;;3.35;1.90;;;;;;;;;;606515;236;26880;-61
2022/09/10 09:44:21;;;;;;;4.20;1.80;;;;;;;;;;603495;236;26626;-61
2022/09/10 09:46:48;;;;;;;3.78;1.60;;;;;;;;;;607983;236;26836;-61
2022/09/10 09:49:17;;;;;;;4.20;2.00;;;;;;;;;;603046;236;26656;-61
2022/09/10 09:51:46;;;;;;;3.10;1.50;;;;;;;;;;606704;236;26642;-61
2022/09/10 09:54:16;;;;;;;5.07;1.52;;;;;;;;;;606696;236;26596;-62
2022/09/10 09:56:44;;;;;;;1.77;1.40;;;;;;;;;;603033;236;26647;-61
2022/09/10 09:59:19;;;;;;;3.92;1.80;;;;;;;;;;609369;236;26862;-61
2022/09/10 10:01:50;;;;;;;3.67;1.70;;;;;;;;;;606535;235;26653;-61
2022/09/10 10:04:19;;;;;;;2.05;1.50;;;;;;;;;;606695;236;26850;-60
2022/09/10 10:06:56;;;;;;;2.30;1.62;;;;;;;;;;612711;234;26649;-61
2022/09/10 10:09:25;;;;;;;4.00;1.48;;;;;;;;;;603552;236;26661;-61
2022/09/10 10:11:56;;;;;;;3.10;1.33;;;;;;;;;;606122;232;26649;-62
2022/09/10 10:14:25;;;;;;;3.60;1.15;;;;;;;;;;607306;236;26621;-61
2022/09/10 10:16:54;;;;;;;1.35;1.10;;;;;;;;;;602615;236;26821;-61
2022/09/10 10:19:27;;;;;;;2.28;1.10;;;;;;;;;;610829;235;26553;-62
2022/09/10 10:21:58;;;;;;;1.08;1.05;;;;;;;;;;608714;232;26674;-62
2022/09/10 10:24:27;;;;;;;1.67;1.10;;;;;;;;;;608293;235;26640;-61
2022/09/10 10:26:57;;;;;;;1.95;1.02;;;;;;;;;;603616;235;26656;-61
2022/09/10 10:29:25;;;;;;;3.37;1.15;;;;;;;;;;608704;235;26613;-61
2022/09/10 10:31:55;;;;;;;4.30;1.20;;;;;;;;;;605668;235;26814;-61
2022/09/10 10:34:29;;;;;;;8.15;1.45;;;;;;;;;;604804;235;26597;-61
2022/09/10 10:37:02;;;;;;;4.05;1.10;;;;;;;;;;607238;235;26574;-61
2022/09/10 10:39:48;;;;;;;1.10;1.00;;;;;;;;;;607680;235;26903;-61
2022/09/10 10:42:19;;;;;;;1.52;0.88;;;;;;;;;;606580;236;26607;-61
2022/09/10 10:45:07;;;;;;;1.33;0.80;;;;;;;;;;609745;236;26612;-61
2022/09/10 10:47:38;;;;;;;1.35;1.00;;;;;;;;;;604155;236;26646;-61
2022/09/10 10:50:21;;;;;;;1.25;1.15;;;;;;;;;;606023;236;26847;-61
2022/09/10 10:53:00;;;;;;;2.08;0.90;;;;;;;;;;602833;236;26611;-61
2022/09/10 10:55:30;;;;;;;1.48;1.20;;;;;;;;;;607346;236;26829;-61
2022/09/10 10:57:59;;;;;;;2.55;1.10;;;;;;;;;;605299;236;27319;-61
2022/09/10 11:00:28;;;;;;;2.60;1.40;;;;;;;;;;603642;236;26647;-60
2022/09/10 11:03:01;;;;;;;1.77;1.00;;;;;;;;;;608518;236;26665;-61
2022/09/10 11:05:30;;;;;;;1.60;1.00;;;;;;;;;;603449;236;26704;-61
2022/09/10 11:07:58;;;;;;;4.70;1.08;;;;;;;;;;605481;236;26634;-60
2022/09/10 11:10:27;;;;;;;1.60;1.00;;;;;;;;;;607286;236;26646;-61
2022/09/10 11:12:56;;;;;;;1.45;1.02;;;;;;;;;;602491;236;26665;-60
2022/09/10 11:15:40;;;;;;;1.17;0.82;;;;;;;;;;607594;236;26627;-60
2022/09/10 11:18:28;;;;;;;1.30;0.95;;;;;;;;;;605801;236;26597;-60
2022/09/10 11:20:58;;;;;;;2.53;0.90;;;;;;;;;;602572;236;26667;-60
2022/09/10 11:23:28;;;;;;;3.17;1.20;;;;;;;;;;609893;236;26661;-61
2022/09/10 11:25:59;;;;;;;1.23;1.12;;;;;;;;;;610902;235;26594;-60
2022/09/10 11:28:27;;;;;;;1.42;1.00;;;;;;;;;;604581;235;27334;-63
2022/09/10 11:30:57;;;;;;;5.80;1.62;;;;;;;;;;608717;235;26829;-62
2022/09/10 11:33:27;;;;;;;73.05;15.52;;;;;;;;;;608891;233;26669;-60
2022/09/10 11:35:58;;;;;;;94.97;20.20;;;;;;;;;;606340;235;26587;-61
2022/09/10 11:38:25;;;;;;;113.80;25.17;;;;;;;;;;604792;235;26654;-60
2022/09/10 11:41:00;;;;;;;61.13;17.45;;;;;;;;;;608856;235;26910;-61
2022/09/10 11:43:28;;;;;;;48.13;13.55;;;;;;;;;;604333;235;26862;-61
2022/09/10 11:45:57;;;;;;;45.05;11.70;;;;;;;;;;606157;235;26585;-61
2022/09/10 11:48:29;;;;;;;28.23;7.30;;;;;;;;;;607753;235;26593;-61
2022/09/10 11:51:01;;;;;;;12.07;2.97;;;;;;;;;;603052;235;26590;-61
2022/09/10 11:53:29;;;;;;;10.85;3.03;;;;;;;;;;608026;235;26614;-61
2022/09/10 11:56:04;;;;;;;9.45;2.95;;;;;;;;;;605771;236;26632;-61
2022/09/10 11:58:33;;;;;;;5.45;2.58;;;;;;;;;;611928;235;26593;-61
2022/09/10 12:01:18;;;;;;;11.45;3.67;;;;;;;;;;602641;235;26796;-61
2022/09/10 12:03:46;;;;;;;3.03;1.73;;;;;;;;;;606522;236;26598;-61
2022/09/10 12:06:16;;;;;;;3.67;1.90;;;;;;;;;;606330;234;26814;-61
2022/09/10 12:08:44;;;;;;;3.37;1.23;;;;;;;;;;603049;236;26642;-61
2022/09/10 12:11:13;;;;;;;2.45;1.20;;;;;;;;;;606402;236;26593;-61
2022/09/10 12:13:44;;;;;;;2.62;1.30;;;;;;;;;;606342;236;26578;-61
2022/09/10 12:16:15;;;;;;;1.77;1.35;;;;;;;;;;606184;236;26651;-61
2022/09/10 12:18:43;;;;;;;1.30;1.10;;;;;;;;;;603036;236;27307;-61
2022/09/10 12:21:15;;;;;;;1.08;1.02;;;;;;;;;;605361;237;26578;-61
2022/09/10 12:23:43;;;;;;;1.10;1.00;;;;;;;;;;604324;236;26641;-61
2022/09/10 12:26:13;;;;;;;1.48;1.00;;;;;;;;;;610030;235;26592;-61
2022/09/10 12:28:56;;;;;;;1.27;0.90;;;;;;;;;;611726;235;26585;-61
2022/09/10 12:31:26;;;;;;;1.85;0.90;;;;;;;;;;607586;236;26975;-61
2022/09/10 12:34:10;;;;;;;2.75;1.02;;;;;;;;;;605248;236;26656;-61
2022/09/10 12:36:53;;;;;;;1.12;0.90;;;;;;;;;;603364;236;26654;-61
2022/09/10 12:39:24;;;;;;;2.75;1.30;;;;;;;;;;603362;235;26662;-61
2022/09/10 12:41:52;;;;;;;0.80;0.80;;;;;;;;;;610934;235;26638;-61
2022/09/10 12:44:25;;;;;;;0.85;0.85;;;;;;;;;;606133;235;26957;-61
2022/09/10 12:47:00;;;;;;;0.80;0.80;;;;;;;;;;608407;235;26636;-61
2022/09/10 12:49:28;;;;;;;1.98;1.10;;;;;;;;;;606205;234;26644;-61
2022/09/10 12:51:57;;;;;;;4.43;2.35;;;;;;;;;;606476;235;27018;-61
2022/09/10 12:54:45;;;;;;;3.67;2.08;;;;;;;;;;604820;235;26589;-67
2022/09/10 12:57:28;;;;;;;4.25;2.25;;;;;;;;;;598884;236;26612;-68
2022/09/10 13:00:02;;;;;;;5.57;2.70;;;;;;;;;;605954;236;26557;-68
2022/09/10 13:02:31;;;;;;;3.50;2.03;;;;;;;;;;607497;235;26604;-68
2022/09/10 13:05:02;;;;;;;2.37;1.40;;;;;;;;;;609855;236;26593;-68
2022/09/10 13:07:32;;;;;;;2.75;1.17;;;;;;;;;;608104;235;26652;-68
2022/09/10 13:10:01;;;;;;;1.48;1.20;;;;;;;;;;605833;236;26572;-68
2022/09/10 13:12:31;;;;;;;1.83;1.35;;;;;;;;;;610041;236;26840;-69
2022/09/10 13:15:01;;;;;;;1.23;1.12;;;;;;;;;;602995;236;26638;-70
2022/09/10 13:17:36;;;;;;;3.45;1.10;;;;;;;;;;608269;236;26579;-69
2022/09/10 13:20:12;;;;;;;5.25;2.55;;;;;;;;;;606615;236;26545;-69
2022/09/10 13:22:47;;;;;;;5.95;2.72;;;;;;;;;;610285;235;26584;-69
2022/09/10 13:25:23;;;;;;;4.78;1.50;;;;;;;;;;611793;234;26541;-69
2022/09/10 13:27:51;;;;;;;1.83;1.50;;;;;;;;;;605495;236;26834;-70
2022/09/10 13:30:20;;;;;;;1.83;1.05;;;;;;;;;;604932;236;26598;-68
2022/09/10 13:32:51;;;;;;;2.83;0.85;;;;;;;;;;609066;236;26638;-69
2022/09/10 13:35:20;;;;;;;2.92;1.33;;;;;;;;;;603606;236;26613;-68
2022/09/10 13:37:56;;;;;;;1.20;1.10;;;;;;;;;;606110;236;26610;-69
2022/09/10 13:40:31;;;;;;;2.70;1.50;;;;;;;;;;603619;236;26653;-69
2022/09/10 13:43:00;;;;;;;1.50;1.30;;;;;;;;;;608671;236;26663;-68
2022/09/10 13:45:31;;;;;;;1.80;1.23;;;;;;;;;;602704;236;26652;-68
2022/09/10 13:48:01;;;;;;;1.55;1.45;;;;;;;;;;604048;236;26626;-67
2022/09/10 13:50:37;;;;;;;1.17;1.08;;;;;;;;;;607202;236;26664;-67
2022/09/10 13:53:07;;;;;;;1.90;1.02;;;;;;;;;;607692;235;26871;-69
2022/09/10 13:55:35;;;;;;;5.10;1.12;;;;;;;;;;612099;234;26635;-68
2022/09/10 13:58:05;;;;;;;2.08;1.33;;;;;;;;;;611202;235;26893;-67
2022/09/10 14:00:36;;;;;;;2.78;0.90;;;;;;;;;;611052;235;26847;-68
2022/09/10 14:03:05;;;;;;;1.15;1.05;;;;;;;;;;611054;235;26875;-67
2022/09/10 14:05:34;;;;;;;1.85;0.98;;;;;;;;;;610370;235;26617;-67
2022/09/10 14:08:04;;;;;;;1.20;1.10;;;;;;;;;;610898;235;26560;-68
2022/09/10 14:10:33;;;;;;;1.42;1.00;;;;;;;;;;610879;235;26607;-68
2022/09/10 14:13:02;;;;;;;1.00;0.85;;;;;;;;;;610416;235;26676;-68
2022/09/10 14:15:31;;;;;;;0.75;0.75;;;;;;;;;;610527;235;26580;-67
2022/09/10 14:17:59;;;;;;;0.90;0.90;;;;;;;;;;610092;236;26584;-67
2022/09/10 14:20:29;;;;;;;1.52;0.80;;;;;;;;;;610463;236;26598;-68
2022/09/10 14:22:58;;;;;;;1.02;0.98;;;;;;;;;;610461;236;26607;-68
2022/09/10 14:25:28;;;;;;;1.00;1.00;;;;;;;;;;610470;236;26605;-68
2022/09/10 14:27:56;;;;;;;0.80;0.80;;;;;;;;;;610423;236;26581;-68
2022/09/10 14:30:24;;;;;;;0.80;0.80;;;;;;;;;;609237;236;26783;-68
2022/09/10 14:32:54;;;;;;;7.65;1.50;;;;;;;;;;610120;236;26653;-69
2022/09/10 14:35:28;;;;;;;6.10;1.50;;;;;;;;;;598399;240;26888;-66
2022/09/10 14:37:57;;;;;;;6.00;1.45;;;;;;;;;;587358;243;26651;-67
2022/09/10 14:40:26;;;;;;;6.55;1.90;;;;;;;;;;587359;245;26641;-67
2022/09/10 14:42:55;;;;;;;5.55;1.42;;;;;;;;;;587339;245;26888;-68
2022/09/10 14:45:29;;;;;;;1.87;1.00;;;;;;;;;;586019;245;26644;-68
2022/09/10 14:47:59;;;;;;;1.95;1.40;;;;;;;;;;587348;243;27333;-67
2022/09/10 14:50:27;;;;;;;3.97;1.40;;;;;;;;;;587384;243;26618;-67
2022/09/10 14:52:56;;;;;;;1.55;1.00;;;;;;;;;;587301;245;26654;-67
2022/09/10 14:55:25;;;;;;;1.05;1.05;;;;;;;;;;587398;245;26654;-67
2022/09/10 14:57:54;;;;;;;2.20;1.15;;;;;;;;;;587380;243;26667;-67